createdAt,value
2023-06-26T00:02:13.791Z,3.00
2023-06-26T00:12:16.760Z,3.30
2023-06-26T00:22:21.041Z,3.60
2023-06-26T00:32:23.979Z,3.33
2023-06-26T00:42:28.352Z,3.20
2023-06-26T00:52:31.616Z,2.90
2023-06-26T01:02:40.182Z,2.67
2023-06-26T01:12:43.964Z,3.10
2023-06-26T01:22:59.146Z,3.03
2023-06-26T01:33:04.853Z,2.90
2023-06-26T01:43:11.049Z,2.97
2023-06-26T01:53:22.080Z,3.63
2023-06-26T02:03:25.825Z,3.53
2023-06-26T02:13:30.429Z,3.25
2023-06-26T02:23:33.933Z,2.97
2023-06-26T02:33:38.255Z,2.60
2023-06-26T02:43:41.212Z,3.00
2023-06-26T02:53:45.290Z,3.00
2023-06-26T03:03:48.393Z,3.58
2023-06-26T03:13:56.098Z,4.13
2023-06-26T03:23:59.222Z,3.33
2023-06-26T03:34:03.388Z,2.78
2023-06-26T03:44:06.737Z,3.97
2023-06-26T03:54:20.082Z,3.70
2023-06-26T04:04:23.299Z,3.75
2023-06-26T04:14:27.935Z,3.38
2023-06-26T04:24:30.773Z,3.83
2023-06-26T04:34:37.376Z,3.95
2023-06-26T04:44:42.379Z,3.90
2023-06-26T04:54:47.224Z,3.73
2023-06-26T05:04:50.383Z,4.30
2023-06-26T05:14:54.633Z,3.25
2023-06-26T05:25:01.791Z,3.60
2023-06-26T05:35:07.736Z,2.85
2023-06-26T05:45:12.155Z,2.58
2023-06-26T05:55:17.661Z,3.13
2023-06-26T06:15:25.298Z,2.33
2023-06-26T06:25:28.391Z,2.28
2023-06-26T06:35:32.737Z,2.08
2023-06-26T06:45:35.526Z,2.20
2023-06-26T06:55:39.611Z,2.10
2023-06-26T07:05:43.653Z,2.10
2023-06-26T07:15:49.786Z,11.82
2023-06-26T07:25:52.714Z,2.75
2023-06-26T07:35:56.882Z,3.00
2023-06-26T07:46:00.728Z,2.30
2023-06-26T07:56:05.746Z,2.97
2023-06-26T08:06:10.894Z,2.90
2023-06-26T08:16:16.821Z,2.40
2023-06-26T08:26:19.914Z,2.58
2023-06-26T08:36:24.122Z,2.95
2023-06-26T08:46:29.123Z,2.20
2023-06-26T08:56:37.567Z,1.93
2023-06-26T09:06:41.739Z,2.30
2023-06-26T09:16:47.991Z,2.58
2023-06-26T09:26:52.254Z,1.83
2023-06-26T09:36:57.765Z,1.80
2023-06-26T09:47:00.688Z,1.45
2023-06-26T09:57:12.197Z,1.70
2023-06-26T10:07:16.317Z,1.27
2023-06-26T10:17:23.082Z,1.27
2023-06-26T10:27:29.785Z,1.10
2023-06-26T10:37:47.190Z,1.10
2023-06-26T10:47:54.053Z,0.80
2023-06-26T10:57:58.814Z,0.95
2023-06-26T11:08:06.616Z,1.05
2023-06-26T11:18:11.546Z,1.00
2023-06-26T11:28:14.630Z,0.90
2023-06-26T11:38:18.906Z,0.90
2023-06-26T11:48:22.550Z,0.70
2023-06-26T11:58:27.222Z,0.75
2023-06-26T12:08:30.798Z,0.95
2023-06-26T12:18:37.402Z,0.80
2023-06-26T12:28:40.449Z,1.08
2023-06-26T12:38:47.627Z,1.02
2023-06-26T12:48:52.682Z,0.90
2023-06-26T12:58:57.377Z,0.70
2023-06-26T13:09:01.001Z,0.80
2023-06-26T13:19:05.221Z,0.70
2023-06-26T13:29:08.106Z,0.80
2023-06-26T13:39:12.558Z,1.13
2023-06-26T13:49:15.592Z,0.65
2023-06-26T13:59:40.522Z,0.70
2023-06-26T14:09:43.759Z,0.90
2023-06-26T14:19:48.066Z,0.68
2023-06-26T14:29:51.334Z,0.80
2023-06-26T14:39:55.532Z,0.82
2023-06-26T14:49:58.939Z,0.77
2023-06-26T15:00:04.323Z,0.80
2023-06-26T15:10:09.018Z,0.80
2023-06-26T15:20:13.613Z,0.73
2023-06-26T15:42:29.403Z,0.70
2023-06-26T15:52:32.615Z,0.95
2023-06-26T16:02:36.933Z,0.75
2023-06-26T16:12:39.816Z,0.60
2023-06-26T16:22:45.399Z,0.60
2023-06-26T16:32:48.393Z,1.63
2023-06-26T16:42:53.057Z,0.70
2023-06-26T16:52:56.201Z,0.75
2023-06-26T17:03:01.450Z,0.60
2023-06-26T17:13:04.802Z,0.90
2023-06-26T17:23:09.191Z,0.75
2023-06-26T17:33:12.164Z,0.90
2023-06-26T17:43:18.139Z,0.68
2023-06-26T17:53:24.097Z,0.80
2023-06-26T18:03:29.000Z,0.90
2023-06-26T18:13:32.764Z,0.60
2023-06-26T18:23:37.087Z,0.60
2023-06-26T18:33:40.191Z,1.00
2023-06-26T18:43:48.219Z,0.70
2023-06-26T18:53:51.411Z,0.70
2023-06-26T19:03:56.043Z,0.80
2023-06-26T19:13:59.601Z,0.50
2023-06-26T19:24:04.248Z,0.60
2023-06-26T19:34:07.248Z,1.38
2023-06-26T19:44:12.021Z,0.60
2023-06-26T19:54:15.912Z,0.83
2023-06-26T20:04:20.884Z,0.65
2023-06-26T20:14:24.428Z,0.80
2023-06-26T20:24:30.719Z,0.90
2023-06-26T20:34:34.341Z,0.80
2023-06-26T20:44:39.727Z,0.60
2023-06-26T20:54:43.696Z,0.70
2023-06-26T21:04:48.538Z,0.60
2023-06-26T21:14:51.851Z,0.60
2023-06-26T21:24:56.231Z,1.10
2023-06-26T21:34:59.282Z,0.90
2023-06-26T21:45:04.209Z,0.70
2023-06-26T21:55:07.296Z,0.63
2023-06-26T22:05:12.159Z,0.60
2023-06-26T22:15:14.978Z,0.70
2023-06-26T22:25:19.152Z,0.70
2023-06-26T22:35:22.265Z,0.70
2023-06-26T22:45:26.634Z,0.90
2023-06-26T22:55:31.732Z,0.70
2023-06-26T23:05:38.497Z,0.87
2023-06-26T23:15:43.423Z,0.80
2023-06-26T23:25:47.691Z,0.70
2023-06-26T23:35:50.992Z,0.97
2023-06-26T23:45:55.221Z,0.83
2023-06-26T23:55:58.308Z,0.90
